Shinyo Maru — JFCL — position and weather

sailwx.info

Track history (hours):
 
Tides and Currents Weather Stations Pressure Air Temp Water Temp Dewpoint Dewpoint Depression Visibility Wind Speed Wind Dir Waves Ship Positions

Oceanographic research ship Shinyo Maru (Japan)

Detailed information on ship capabilities available from University of Delaware's Ocean Information Center.

Last reported at 2018-May-01 22:33 UTC. Time now 2018-Dec-18 10:29 UTC.
Position N 34°49' E 139°51'.
Warning: this ship's position is months out of date.

Length 60 m; beam 10.6 m; draft 4.2 m.

Type: Fishing. MMSI: 431466000.

Date/timePositionNaut miles runAvg speedWind from/ knotsBaromVisibWave heightAir tempDewpointWater temp
2018-May-01 22:33N 34°49' E 139°51'212.8
2018-May-01 22:25N 34°48' E 139°49'511.9
2018-May-01 22:00N 34°46' E 139°44'1312.5
2018-May-01 20:57N 34°40' E 139°29'613.8
2018-May-01 20:30N 34°38' E 139°22'713.5
2018-May-01 20:00N 34°37' E 139°14'813.7
2018-May-01 19:23N 34°34' E 139°05'613.8
2018-May-01 18:59N 34°32' E 138°58'6313.4
2018-May-01 14:17N 34°06' E 137°49'413.0
2018-May-01 14:00N 34°05' E 137°45'22811.6
2018-Apr-30 18:21N 32°51' E 133°26'70 9.6
2018-Apr-30 11:06N 33°11' E 132°06'1 9.6
2018-Apr-30 11:00N 33°12' E 132°06'5 9.6
2018-Apr-30 10:31N 33°15' E 132°02'5 9.3
2018-Apr-30 09:59N 33°19' E 131°59'4 8.3
2018-Apr-30 09:30N 33°23' E 132°01'5 9.4
2018-Apr-30 09:00N 33°27' E 132°04'510.0
2018-Apr-30 08:29N 33°30' E 132°09'510.5
2018-Apr-30 07:59N 33°34' E 132°13'511.0
2018-Apr-30 07:31N 33°38' E 132°18'811.8
2018-Apr-30 06:49N 33°44' E 132°25'412.5
2018-Apr-30 06:30N 33°46' E 132°28'612.8
2018-Apr-30 06:00N 33°51' E 132°33'713.2
2018-Apr-30 05:30N 33°56' E 132°39'713.8
2018-Apr-30 05:00N 34°00' E 132°45'  
2018-Apr-27 20:10N 34°07' E 132°50'3 9.5
2018-Apr-27 19:54N 34°05' E 132°48'4 9.9
2018-Apr-27 19:27N 34°01' E 132°45'4 9.4
2018-Apr-27 19:00N 33°57' E 132°43'4 8.8
2018-Apr-27 18:30N 33°55' E 132°39'4 8.9
2018-Apr-27 18:00N 33°52' E 132°35'5 8.9
2018-Apr-27 17:30N 33°48' E 132°31'4 8.9
2018-Apr-27 17:00N 33°45' E 132°27'4 8.8
2018-Apr-27 16:30N 33°42' E 132°24'30 8.4
2018-Apr-27 13:01N 33°21' E 131°59'0 8.0
2018-Apr-27 13:00N 33°21' E 131°59'3 6.3
2018-Apr-27 12:30N 33°18' E 132°01'4 8.0
2018-Apr-27 12:00N 33°14' E 132°02'  
Track history (hours):
 
Tides and Currents Weather Stations Pressure Air Temp Water Temp Dewpoint Dewpoint Depression Visibility Wind Speed Wind Dir Waves Ship Positions

Oceanographic research ship Shinyo Maru (Japan)

Detailed information on ship capabilities available from University of Delaware's Ocean Information Center.

Last reported at 2018-May-01 22:33 UTC. Time now 2018-Dec-18 10:29 UTC.
Position N 34°49' E 139°51'.
Warning: this ship's position is months out of date.

Length 60 m; beam 10.6 m; draft 4.2 m.

Type: Fishing. MMSI: 431466000.

Date/timePositionNaut miles runAvg speedWind from/ knotsBaromVisibWave heightAir tempDewpointWater temp
2018-May-01 22:33N 34°49' E 139°51'212.8
2018-May-01 22:25N 34°48' E 139°49'511.9
2018-May-01 22:00N 34°46' E 139°44'1312.5
2018-May-01 20:57N 34°40' E 139°29'613.8
2018-May-01 20:30N 34°38' E 139°22'713.5
2018-May-01 20:00N 34°37' E 139°14'813.7
2018-May-01 19:23N 34°34' E 139°05'613.8
2018-May-01 18:59N 34°32' E 138°58'6313.4
2018-May-01 14:17N 34°06' E 137°49'413.0
2018-May-01 14:00N 34°05' E 137°45'22811.6
2018-Apr-30 18:21N 32°51' E 133°26'70 9.6
2018-Apr-30 11:06N 33°11' E 132°06'1 9.6
2018-Apr-30 11:00N 33°12' E 132°06'5 9.6
2018-Apr-30 10:31N 33°15' E 132°02'5 9.3
2018-Apr-30 09:59N 33°19' E 131°59'4 8.3
2018-Apr-30 09:30N 33°23' E 132°01'5 9.4
2018-Apr-30 09:00N 33°27' E 132°04'510.0
2018-Apr-30 08:29N 33°30' E 132°09'510.5
2018-Apr-30 07:59N 33°34' E 132°13'511.0
2018-Apr-30 07:31N 33°38' E 132°18'811.8
2018-Apr-30 06:49N 33°44' E 132°25'412.5
2018-Apr-30 06:30N 33°46' E 132°28'612.8
2018-Apr-30 06:00N 33°51' E 132°33'713.2
2018-Apr-30 05:30N 33°56' E 132°39'713.8
2018-Apr-30 05:00N 34°00' E 132°45'  
2018-Apr-27 20:10N 34°07' E 132°50'3 9.5
2018-Apr-27 19:54N 34°05' E 132°48'4 9.9
2018-Apr-27 19:27N 34°01' E 132°45'4 9.4
2018-Apr-27 19:00N 33°57' E 132°43'4 8.8
2018-Apr-27 18:30N 33°55' E 132°39'4 8.9
2018-Apr-27 18:00N 33°52' E 132°35'5 8.9
2018-Apr-27 17:30N 33°48' E 132°31'4 8.9
2018-Apr-27 17:00N 33°45' E 132°27'4 8.8
2018-Apr-27 16:30N 33°42' E 132°24'30 8.4
2018-Apr-27 13:01N 33°21' E 131°59'0 8.0
2018-Apr-27 13:00N 33°21' E 131°59'3 6.3
2018-Apr-27 12:30N 33°18' E 132°01'4 8.0
2018-Apr-27 12:00N 33°14' E 132°02'  

Dump ship's entire track history